createdAt,value
2017-07-24T00:00:01.019Z,0
2017-07-24T00:01:01.982Z,0
2017-07-24T00:02:02.024Z,0
2017-07-24T00:03:02.296Z,0
2017-07-24T00:04:02.069Z,0
2017-07-24T00:05:01.486Z,0
2017-07-24T00:06:01.820Z,0
2017-07-24T00:07:01.843Z,0
2017-07-24T00:08:01.873Z,0
2017-07-24T00:09:01.899Z,0
2017-07-24T00:10:01.930Z,0
2017-07-24T00:11:01.956Z,0
2017-07-24T00:12:02.308Z,0
2017-07-24T00:13:02.014Z,0
2017-07-24T00:14:02.357Z,0
2017-07-24T00:15:02.387Z,0
2017-07-24T00:16:01.798Z,0
2017-07-24T00:17:02.444Z,0
2017-07-24T00:18:02.153Z,0
2017-07-24T00:19:02.488Z,0
2017-07-24T00:20:01.907Z,0
2017-07-24T00:21:02.562Z,0
2017-07-24T00:22:02.590Z,0
2017-07-24T00:23:02.309Z,0
2017-07-24T00:24:02.013Z,0
2017-07-24T00:25:02.045Z,0
2017-07-24T00:26:02.699Z,0
2017-07-24T00:27:02.720Z,0
2017-07-24T00:28:02.442Z,0
2017-07-24T00:29:02.477Z,0
2017-07-24T00:30:02.505Z,0
2017-07-24T00:31:02.533Z,0
2017-07-24T00:32:02.864Z,0
2017-07-24T00:33:02.902Z,0
2017-07-24T00:34:02.617Z,0
2017-07-24T00:35:02.661Z,0
2017-07-24T00:36:02.675Z,0
2017-07-24T00:37:03.020Z,0
2017-07-24T00:38:02.729Z,0
2017-07-24T00:39:03.018Z,0
2017-07-24T00:40:03.100Z,0
2017-07-24T00:41:03.128Z,0
2017-07-24T00:42:02.533Z,0
2017-07-24T00:43:03.181Z,0
2017-07-24T00:44:03.514Z,0
2017-07-24T00:45:03.234Z,0
2017-07-24T00:46:02.957Z,0
2017-07-24T00:47:02.987Z,0
2017-07-24T00:48:03.017Z,0
2017-07-24T00:49:03.613Z,0
2017-07-24T00:50:03.073Z,0
2017-07-24T00:51:03.102Z,0
2017-07-24T00:52:02.819Z,0
2017-07-24T00:53:02.842Z,0
2017-07-24T00:54:03.434Z,0
2017-07-24T00:55:03.210Z,0
2017-07-24T00:56:02.943Z,0
2017-07-24T00:57:03.271Z,0
2017-07-24T00:58:03.609Z,0
2017-07-24T00:59:03.588Z,0
2017-07-24T01:00:03.672Z,0
2017-07-24T01:01:03.395Z,0
2017-07-24T01:02:03.727Z,0
2017-07-24T01:03:03.445Z,0
2017-07-24T01:04:04.102Z,0
2017-07-24T01:05:03.194Z,0
2017-07-24T01:06:02.901Z,0
2017-07-24T01:07:03.556Z,0
2017-07-24T01:08:03.577Z,0
2017-07-24T01:09:03.865Z,0
2017-07-24T01:10:03.955Z,0
2017-07-24T01:11:03.664Z,0
2017-07-24T01:12:03.707Z,0
2017-07-24T01:13:03.425Z,0
2017-07-24T01:14:04.057Z,0
2017-07-24T01:15:04.100Z,0
2017-07-24T01:16:03.820Z,0
2017-07-24T01:17:03.839Z,0
2017-07-24T01:18:03.878Z,0
2017-07-24T01:19:04.155Z,0
2017-07-24T01:20:04.243Z,0
2017-07-24T01:21:03.953Z,0
2017-07-24T01:22:03.981Z,0
2017-07-24T01:23:04.325Z,0
2017-07-24T01:24:04.030Z,0
2017-07-24T01:25:04.072Z,0
2017-07-24T01:26:04.101Z,0
2017-07-24T01:27:04.441Z,0
2017-07-24T01:28:03.845Z,0
2017-07-24T01:29:04.129Z,0
2017-07-24T01:30:04.212Z,0
2017-07-24T01:31:03.944Z,0
2017-07-24T01:32:04.580Z,0
2017-07-24T01:33:04.308Z,0
2017-07-24T01:34:04.630Z,0
2017-07-24T01:35:04.048Z,0
2017-07-24T01:36:04.380Z,0
2017-07-24T01:37:04.417Z,0
2017-07-24T01:38:03.822Z,0
2017-07-24T01:39:04.730Z,0
2017-07-24T01:40:04.812Z,0
2017-07-24T01:41:04.841Z,0
2017-07-24T01:42:04.553Z,0
2017-07-24T01:43:04.898Z,0
2017-07-24T01:44:05.181Z,0
2017-07-24T01:45:04.950Z,0
2017-07-24T01:46:04.680Z,0
2017-07-24T01:47:04.710Z,0
2017-07-24T01:48:04.414Z,0
2017-07-24T01:49:05.074Z,0
2017-07-24T01:50:05.089Z,0
2017-07-24T01:51:05.123Z,0
2017-07-24T01:52:04.833Z,0
2017-07-24T01:53:05.177Z,0
2017-07-24T01:54:04.899Z,0
2017-07-24T01:55:05.239Z,0
2017-07-24T01:56:04.652Z,0
2017-07-24T01:57:04.985Z,0
2017-07-24T01:58:05.322Z,0
2017-07-24T01:59:04.735Z,0
2017-07-24T02:00:05.389Z,0
2017-07-24T02:01:05.100Z,0
2017-07-24T02:02:05.129Z,0
2017-07-24T02:03:04.846Z,0
2017-07-24T02:04:05.499Z,0
2017-07-24T02:05:04.904Z,0
2017-07-24T02:06:04.923Z,0
2017-07-24T02:07:05.577Z,0
2017-07-24T02:08:05.609Z,0
2017-07-24T02:09:05.641Z,0
2017-07-24T02:10:05.319Z,0
2017-07-24T02:11:05.387Z,0
2017-07-24T02:12:05.730Z,0
2017-07-24T02:13:05.438Z,0
2017-07-24T02:14:05.783Z,0
2017-07-24T02:15:05.440Z,0
2017-07-24T02:16:05.527Z,0
2017-07-24T02:17:05.870Z,0
2017-07-24T02:18:05.898Z,0
2017-07-24T02:19:05.919Z,0
2017-07-24T02:20:05.628Z,0
2017-07-24T02:21:05.677Z,0
2017-07-24T02:22:06.017Z,0
2017-07-24T02:23:05.727Z,0
2017-07-24T02:24:06.562Z,0
2017-07-24T02:25:06.076Z,0
2017-07-24T02:26:05.813Z,0
2017-07-24T02:27:05.842Z,0
2017-07-24T02:28:05.869Z,0
2017-07-24T02:29:06.202Z,0
2017-07-24T02:30:06.488Z,0
2017-07-24T02:31:05.966Z,0
2017-07-24T02:32:06.294Z,0
2017-07-24T02:33:06.323Z,0
2017-07-24T02:34:06.347Z,0
2017-07-24T02:35:06.329Z,0
2017-07-24T02:36:05.794Z,0
2017-07-24T02:37:06.125Z,0
2017-07-24T02:38:05.849Z,0
2017-07-24T02:39:05.866Z,0
2017-07-24T02:40:06.513Z,0
2017-07-24T02:41:05.619Z,0
2017-07-24T02:42:06.261Z,0
2017-07-24T02:43:06.294Z,0
2017-07-24T02:44:06.014Z,0
2017-07-24T02:45:06.292Z,0
2017-07-24T02:46:06.384Z,0
2017-07-24T02:47:05.798Z,0
2017-07-24T02:48:06.755Z,0
2017-07-24T02:49:06.160Z,0
2017-07-24T02:50:06.444Z,0
2017-07-24T02:51:06.533Z,0
2017-07-24T02:52:06.578Z,0
2017-07-24T02:53:06.890Z,0
2017-07-24T02:54:06.302Z,0
2017-07-24T02:55:06.929Z,0
2017-07-24T02:56:06.976Z,0
2017-07-24T02:57:06.693Z,0
2017-07-24T02:58:06.727Z,0
2017-07-24T02:59:06.764Z,0
2017-07-24T03:00:07.083Z,0
2017-07-24T03:01:07.121Z,0
2017-07-24T03:02:06.525Z,0
2017-07-24T03:03:07.191Z,0
2017-07-24T03:04:07.204Z,0
2017-07-24T03:05:07.484Z,0
2017-07-24T03:06:07.256Z,0
2017-07-24T03:07:07.289Z,0
2017-07-24T03:08:07.002Z,0
2017-07-24T03:09:07.352Z,0
2017-07-24T03:10:07.670Z,0
2017-07-24T03:11:07.103Z,0
2017-07-24T03:12:07.114Z,0
2017-07-24T03:13:07.462Z,0
2017-07-24T03:14:07.184Z,0
2017-07-24T03:15:07.196Z,0
2017-07-24T03:16:06.929Z,0
2017-07-24T03:17:07.259Z,0
2017-07-24T03:18:06.985Z,0
2017-07-24T03:19:07.320Z,0
2017-07-24T03:20:07.289Z,0
2017-07-24T03:21:07.069Z,0
2017-07-24T03:22:07.726Z,0
2017-07-24T03:23:07.127Z,0
2017-07-24T03:24:07.788Z,0
2017-07-24T03:25:07.476Z,0
2017-07-24T03:26:07.830Z,0
2017-07-24T03:27:07.861Z,0
2017-07-24T03:28:06.943Z,0
2017-07-24T03:29:07.317Z,0
2017-07-24T03:30:08.197Z,0
2017-07-24T03:31:07.388Z,0
2017-07-24T03:32:08.013Z,0
2017-07-24T03:33:07.719Z,0
2017-07-24T03:34:07.440Z,0
2017-07-24T03:35:08.073Z,0
2017-07-24T03:36:07.801Z,0
2017-07-24T03:37:07.554Z,0
2017-07-24T03:38:08.171Z,0
2017-07-24T03:39:07.898Z,0
2017-07-24T03:40:08.173Z,0
2017-07-24T03:41:08.273Z,0
2017-07-24T03:42:07.967Z,0
2017-07-24T03:43:07.999Z,0
2017-07-24T03:44:08.334Z,0
2017-07-24T03:45:08.637Z,0
2017-07-24T03:46:08.078Z,0
2017-07-24T03:47:07.811Z,4
2017-07-24T03:48:08.456Z,4
2017-07-24T03:49:08.471Z,8
2017-07-24T03:50:08.761Z,8
2017-07-24T03:51:08.541Z,8
2017-07-24T03:52:07.947Z,8
2017-07-24T03:53:08.591Z,8
2017-07-24T03:54:08.312Z,8
2017-07-24T03:55:08.277Z,8
2017-07-24T03:56:08.373Z,8
2017-07-24T03:57:08.082Z,8
2017-07-24T03:58:08.447Z,8
2017-07-24T03:59:08.454Z,8
2017-07-24T04:00:08.731Z,12
2017-07-24T04:01:08.201Z,16
2017-07-24T04:02:08.538Z,20
2017-07-24T04:03:08.878Z,20
2017-07-24T04:04:08.592Z,24
2017-07-24T04:05:09.232Z,28
2017-07-24T04:06:08.337Z,28
2017-07-24T04:07:08.995Z,24
2017-07-24T04:08:08.416Z,28
2017-07-24T04:09:08.429Z,36
2017-07-24T04:10:09.338Z,40
2017-07-24T04:11:08.806Z,40
2017-07-24T04:12:08.519Z,36
2017-07-24T04:13:08.853Z,32
2017-07-24T04:14:08.564Z,28
2017-07-24T04:15:08.853Z,28
2017-07-24T04:16:09.249Z,20
2017-07-24T04:17:08.972Z,12
2017-07-24T04:18:09.305Z,20
2017-07-24T04:19:09.340Z,16
2017-07-24T04:20:09.350Z,20
2017-07-24T04:21:09.389Z,16
2017-07-24T04:22:09.111Z,28
2017-07-24T04:23:08.824Z,32
2017-07-24T04:24:08.853Z,32
2017-07-24T04:25:09.485Z,32
2017-07-24T04:26:08.911Z,44
2017-07-24T04:27:09.563Z,44
2017-07-24T04:28:08.963Z,48
2017-07-24T04:29:08.992Z,48
2017-07-24T04:30:09.638Z,48
2017-07-24T04:31:09.078Z,44
2017-07-24T04:32:09.399Z,44
2017-07-24T04:33:09.732Z,52
2017-07-24T04:34:09.796Z,52
2017-07-24T04:35:09.773Z,52
2017-07-24T04:36:09.506Z,48
2017-07-24T04:37:09.843Z,48
2017-07-24T04:38:09.260Z,52
2017-07-24T04:39:09.600Z,36
2017-07-24T04:40:09.917Z,44
2017-07-24T04:41:09.642Z,40
2017-07-24T04:42:09.991Z,52
2017-07-24T04:43:09.393Z,56
2017-07-24T04:44:10.040Z,68
2017-07-24T04:45:09.748Z,84
2017-07-24T04:46:09.162Z,80
2017-07-24T04:47:09.540Z,108
2017-07-24T04:48:09.843Z,116
2017-07-24T04:49:09.888Z,108
2017-07-24T04:50:10.466Z,140
2017-07-24T04:51:09.929Z,120
2017-07-24T04:52:09.648Z,116
2017-07-24T04:53:10.304Z,116
2017-07-24T04:54:10.030Z,100
2017-07-24T04:55:10.041Z,108
2017-07-24T04:56:09.758Z,124
2017-07-24T04:57:10.423Z,128
2017-07-24T04:58:09.823Z,144
2017-07-24T04:59:10.157Z,152
2017-07-24T05:00:10.206Z,184
2017-07-24T05:01:10.215Z,208
2017-07-24T05:02:09.930Z,244
2017-07-24T05:03:10.589Z,256
2017-07-24T05:04:09.984Z,264
2017-07-24T05:05:10.333Z,236
2017-07-24T05:06:10.355Z,208
2017-07-24T05:07:10.388Z,256
2017-07-24T05:08:10.419Z,252
2017-07-24T05:09:10.748Z,276
2017-07-24T05:10:10.158Z,336
2017-07-24T05:11:10.507Z,320
2017-07-24T05:12:10.531Z,304
2017-07-24T05:13:10.860Z,308
2017-07-24T05:14:10.594Z,296
2017-07-24T05:15:10.613Z,288
2017-07-24T05:16:10.326Z,260
2017-07-24T05:17:10.352Z,288
2017-07-24T05:18:10.693Z,300
2017-07-24T05:19:10.413Z,308
2017-07-24T05:20:11.057Z,320
2017-07-24T05:21:10.774Z,320
2017-07-24T05:22:10.806Z,328
2017-07-24T05:23:10.837Z,328
2017-07-24T05:24:11.201Z,316
2017-07-24T05:25:10.886Z,304
2017-07-24T05:26:11.171Z,316
2017-07-24T05:27:10.957Z,336
2017-07-24T05:28:10.968Z,356
2017-07-24T05:29:11.005Z,372
2017-07-24T05:30:11.346Z,380
2017-07-24T05:31:11.627Z,376
2017-07-24T05:32:10.779Z,376
2017-07-24T05:33:11.120Z,388
2017-07-24T05:34:11.146Z,404
2017-07-24T05:35:11.490Z,424
2017-07-24T05:36:11.479Z,452
2017-07-24T05:37:11.224Z,480
2017-07-24T05:38:10.943Z,532
2017-07-24T05:39:11.301Z,592
2017-07-24T05:40:11.630Z,640
2017-07-24T05:41:11.595Z,708
2017-07-24T05:42:11.365Z,720
2017-07-24T05:43:11.395Z,720
2017-07-24T05:44:11.117Z,748
2017-07-24T05:45:11.835Z,796
2017-07-24T05:46:11.739Z,824
2017-07-24T05:47:11.542Z,1056
2017-07-24T05:48:11.229Z,856
2017-07-24T05:49:11.265Z,964
2017-07-24T05:50:11.906Z,840
2017-07-24T05:51:12.191Z,792
2017-07-24T05:52:11.960Z,660
2017-07-24T05:53:11.681Z,604
2017-07-24T05:54:12.023Z,776
2017-07-24T05:55:11.434Z,728
2017-07-24T05:56:11.396Z,796
2017-07-24T05:57:12.108Z,876
2017-07-24T05:58:11.832Z,968
2017-07-24T05:59:11.865Z,932
2017-07-24T06:00:11.570Z,928
2017-07-24T06:01:12.206Z,1008
2017-07-24T06:02:11.940Z,1096
2017-07-24T06:03:11.652Z,1144
2017-07-24T06:04:11.674Z,1204
2017-07-24T06:05:11.711Z,1324
2017-07-24T06:06:11.986Z,1396
2017-07-24T06:07:12.388Z,1324
2017-07-24T06:08:12.416Z,1352
2017-07-24T06:09:11.828Z,1180
2017-07-24T06:10:12.471Z,1196
2017-07-24T06:11:12.755Z,1284
2017-07-24T06:12:12.528Z,1392
2017-07-24T06:13:12.241Z,1524
2017-07-24T06:14:11.965Z,1360
2017-07-24T06:15:12.614Z,1220
2017-07-24T06:16:12.952Z,1184
2017-07-24T06:17:12.376Z,1440
2017-07-24T06:18:11.761Z,1296
2017-07-24T06:19:12.101Z,1280
2017-07-24T06:20:12.753Z,1288
2017-07-24T06:21:12.781Z,1880
2017-07-24T06:22:12.817Z,1904
2017-07-24T06:23:12.836Z,1688
2017-07-24T06:24:12.563Z,1764
2017-07-24T06:25:12.591Z,1808
2017-07-24T06:26:12.595Z,1724
2017-07-24T06:27:12.016Z,1412
2017-07-24T06:28:12.359Z,1296
2017-07-24T06:29:12.394Z,1184
2017-07-24T06:30:12.410Z,1096
2017-07-24T06:31:13.018Z,1148
2017-07-24T06:32:13.104Z,988
2017-07-24T06:33:12.497Z,1000
2017-07-24T06:34:13.149Z,1124
2017-07-24T06:35:12.879Z,1304
2017-07-24T06:36:12.847Z,1256
2017-07-24T06:37:12.612Z,1084
2017-07-24T06:38:12.959Z,964
2017-07-24T06:39:13.297Z,920
2017-07-24T06:40:13.016Z,940
2017-07-24T06:41:13.283Z,1080
2017-07-24T06:42:13.064Z,1292
2017-07-24T06:43:13.096Z,1388
2017-07-24T06:44:13.121Z,1588
2017-07-24T06:45:12.844Z,1800
2017-07-24T06:46:13.435Z,2180
2017-07-24T06:47:13.208Z,2236
2017-07-24T06:48:13.550Z,2568
2017-07-24T06:49:13.577Z,2148
2017-07-24T06:50:12.982Z,2040
2017-07-24T06:51:13.924Z,1848
2017-07-24T06:52:13.359Z,1380
2017-07-24T06:53:13.069Z,1380
2017-07-24T06:54:13.403Z,1456
2017-07-24T06:55:13.742Z,800
2017-07-24T06:56:14.027Z,1340
2017-07-24T06:57:13.496Z,1200
2017-07-24T06:58:13.205Z,1912
2017-07-24T06:59:13.544Z,1680
2017-07-24T07:00:13.585Z,1844
2017-07-24T07:01:14.172Z,1652
2017-07-24T07:02:13.633Z,1564
2017-07-24T07:03:13.974Z,1468
2017-07-24T07:04:14.001Z,1572
2017-07-24T07:05:14.026Z,1676
2017-07-24T07:06:13.687Z,1932
2017-07-24T07:07:14.083Z,2260
2017-07-24T07:08:13.807Z,2824
2017-07-24T07:09:14.145Z,2936
2017-07-24T07:10:14.175Z,3292
2017-07-24T07:11:14.191Z,3004
2017-07-24T07:12:13.945Z,2948
2017-07-24T07:13:14.258Z,2952
2017-07-24T07:14:13.965Z,2892
2017-07-24T07:15:14.310Z,2756
2017-07-24T07:16:14.031Z,2568
2017-07-24T07:17:14.060Z,2172
2017-07-24T07:18:14.400Z,2292
2017-07-24T07:19:14.109Z,2452
2017-07-24T07:20:14.150Z,2676
2017-07-24T07:21:14.479Z,2860
2017-07-24T07:22:14.195Z,2900
2017-07-24T07:23:14.536Z,2780
2017-07-24T07:24:14.253Z,2800
2017-07-24T07:25:14.282Z,3068
2017-07-24T07:26:14.311Z,3328
2017-07-24T07:27:14.588Z,3096
2017-07-24T07:28:14.062Z,2976
2017-07-24T07:29:14.090Z,2944
2017-07-24T07:30:14.431Z,2848
2017-07-24T07:31:14.463Z,2812
2017-07-24T07:32:15.048Z,2852
2017-07-24T07:33:14.821Z,3088
2017-07-24T07:34:14.877Z,3472
2017-07-24T07:35:14.258Z,3484
2017-07-24T07:36:14.294Z,3460
2017-07-24T07:37:14.873Z,3272
2017-07-24T07:38:14.330Z,3076
2017-07-24T07:39:14.680Z,2940
2017-07-24T07:40:15.011Z,3288
2017-07-24T07:41:14.738Z,3512
2017-07-24T07:42:15.325Z,3736
2017-07-24T07:43:14.797Z,3984
2017-07-24T07:44:14.821Z,4180
2017-07-24T07:45:14.543Z,4380
2017-07-24T07:46:15.196Z,4416
2017-07-24T07:47:14.857Z,4340
2017-07-24T07:48:14.633Z,4060
2017-07-24T07:49:14.955Z,4276
2017-07-24T07:50:14.683Z,4436
2017-07-24T07:51:15.028Z,4352
2017-07-24T07:52:15.311Z,4220
2017-07-24T07:53:14.756Z,4280
2017-07-24T07:54:14.790Z,4612
2017-07-24T07:55:14.827Z,4732
2017-07-24T07:56:15.476Z,4592
2017-07-24T07:57:15.130Z,3680
2017-07-24T07:58:15.540Z,3872
2017-07-24T07:59:15.258Z,3148
2017-07-24T08:00:15.287Z,2144
2017-07-24T08:01:14.997Z,2432
2017-07-24T08:02:14.993Z,2360
2017-07-24T08:03:15.675Z,1648
2017-07-24T08:04:15.408Z,2788
2017-07-24T08:05:15.736Z,4336
2017-07-24T08:06:15.764Z,3932
2017-07-24T08:07:15.117Z,1352
2017-07-24T08:08:14.884Z,924
2017-07-24T08:09:15.225Z,1248
2017-07-24T08:10:15.261Z,2228
2017-07-24T08:11:15.592Z,2172
2017-07-24T08:12:15.561Z,4116
2017-07-24T08:13:15.666Z,2248
2017-07-24T08:14:15.372Z,1832
2017-07-24T08:15:15.709Z,3124
2017-07-24T08:16:16.058Z,4380
2017-07-24T08:17:16.065Z,4648
2017-07-24T08:18:16.098Z,3960
2017-07-24T08:19:16.143Z,3744
2017-07-24T08:20:16.172Z,3272
2017-07-24T08:21:16.188Z,2684
2017-07-24T08:22:16.156Z,2836
2017-07-24T08:23:15.926Z,2412
2017-07-24T08:24:15.963Z,3188
2017-07-24T08:25:15.992Z,4312
2017-07-24T08:26:15.709Z,3484
2017-07-24T08:27:16.344Z,3800
2017-07-24T08:28:15.761Z,4408
2017-07-24T08:29:16.109Z,4100
2017-07-24T08:30:16.135Z,3188
2017-07-24T08:31:15.542Z,2128
2017-07-24T08:32:16.494Z,1920
2017-07-24T08:33:16.530Z,2664
2017-07-24T08:34:16.569Z,3104
2017-07-24T08:35:16.596Z,3396
2017-07-24T08:36:16.324Z,3660
2017-07-24T08:37:16.270Z,3932
2017-07-24T08:38:16.361Z,4488
2017-07-24T08:39:16.399Z,5160
2017-07-24T08:40:16.418Z,5196
2017-07-24T08:41:16.465Z,5276
2017-07-24T08:42:17.038Z,5460
2017-07-24T08:43:16.202Z,6316
2017-07-24T08:44:16.862Z,6056
2017-07-24T08:45:16.877Z,4212
2017-07-24T08:46:16.910Z,2892
2017-07-24T08:47:16.606Z,2448
2017-07-24T08:48:16.642Z,2072
2017-07-24T08:49:16.994Z,1700
2017-07-24T08:50:16.708Z,1336
2017-07-24T08:51:16.734Z,1188
2017-07-24T08:52:17.017Z,1064
2017-07-24T08:53:16.795Z,1312
2017-07-24T08:54:16.823Z,1956
2017-07-24T08:55:17.167Z,2348
2017-07-24T08:56:16.868Z,2732
2017-07-24T08:57:17.473Z,3156
2017-07-24T08:58:16.958Z,3892
2017-07-24T08:59:16.339Z,4040
2017-07-24T09:00:16.679Z,5008
2017-07-24T09:01:16.396Z,5756
2017-07-24T09:02:17.301Z,5860
2017-07-24T09:03:17.389Z,5956
2017-07-24T09:04:17.419Z,5964
2017-07-24T09:05:17.129Z,5808
2017-07-24T09:06:17.160Z,5468
2017-07-24T09:07:17.181Z,5032
2017-07-24T09:08:16.910Z,4628
2017-07-24T09:09:17.251Z,4272
2017-07-24T09:10:17.283Z,4164
2017-07-24T09:11:16.993Z,4048
2017-07-24T09:12:17.583Z,3068
2017-07-24T09:13:17.678Z,2352
2017-07-24T09:14:17.408Z,2376
2017-07-24T09:15:17.420Z,3384
2017-07-24T09:16:17.774Z,3968
2017-07-24T09:17:17.425Z,4020
2017-07-24T09:18:17.510Z,4108
2017-07-24T09:19:17.230Z,2456
2017-07-24T09:20:17.567Z,2940
2017-07-24T09:21:17.609Z,3952
2017-07-24T09:22:17.926Z,2580
2017-07-24T09:23:17.654Z,4188
2017-07-24T09:24:17.991Z,3388
2017-07-24T09:25:17.710Z,2468
2017-07-24T09:26:17.729Z,2160
2017-07-24T09:27:18.039Z,2280
2017-07-24T09:28:17.791Z,2784
2017-07-24T09:29:17.822Z,3500
2017-07-24T09:30:17.851Z,3128
2017-07-24T09:31:17.888Z,3068
2017-07-24T09:32:18.208Z,3420
2017-07-24T09:33:17.941Z,3704
2017-07-24T09:34:17.968Z,4016
2017-07-24T09:35:18.001Z,4260
2017-07-24T09:36:18.333Z,4464
2017-07-24T09:37:18.624Z,4196
2017-07-24T09:38:17.775Z,4028
2017-07-24T09:39:18.107Z,4320
2017-07-24T09:40:18.140Z,4648
2017-07-24T09:41:18.488Z,4588
2017-07-24T09:42:18.806Z,4268
2017-07-24T09:43:17.618Z,4204
2017-07-24T09:44:18.575Z,4028
2017-07-24T09:45:17.986Z,3916
2017-07-24T09:46:17.993Z,3608
2017-07-24T09:47:18.912Z,3340
2017-07-24T09:48:18.679Z,3916
2017-07-24T09:49:18.403Z,4528
2017-07-24T09:50:18.428Z,4744
2017-07-24T09:51:18.457Z,4264
2017-07-24T09:52:19.054Z,4344
2017-07-24T09:53:18.828Z,3908
2017-07-24T09:54:18.231Z,4360
2017-07-24T09:55:18.570Z,4336
2017-07-24T09:56:18.913Z,4780
2017-07-24T09:57:19.194Z,4256
2017-07-24T09:58:18.971Z,3600
2017-07-24T09:59:18.679Z,2852
2017-07-24T10:00:19.030Z,2860
2017-07-24T10:01:18.436Z,4268
2017-07-24T10:02:19.081Z,5044
2017-07-24T10:03:18.794Z,4940
2017-07-24T10:04:19.159Z,4396
2017-07-24T10:05:18.862Z,4568
2017-07-24T10:06:19.201Z,4320
2017-07-24T10:07:18.911Z,3448
2017-07-24T10:08:18.935Z,3676
2017-07-24T10:09:18.984Z,3624
2017-07-24T10:10:19.324Z,4512
2017-07-24T10:11:18.721Z,5900
2017-07-24T10:12:19.054Z,5756
2017-07-24T10:13:19.090Z,4812
2017-07-24T10:14:19.438Z,4012
2017-07-24T10:15:19.144Z,4636
2017-07-24T10:16:19.177Z,5608
2017-07-24T10:17:19.510Z,6628
2017-07-24T10:18:19.227Z,6864
2017-07-24T10:19:19.260Z,4616
2017-07-24T10:20:19.599Z,4816
2017-07-24T10:21:19.321Z,5236
2017-07-24T10:22:19.043Z,4764
2017-07-24T10:23:19.063Z,3440
2017-07-24T10:24:19.716Z,2728
2017-07-24T10:25:18.809Z,2476
2017-07-24T10:26:18.838Z,2744
2017-07-24T10:27:19.810Z,2780
2017-07-24T10:28:19.207Z,3072
2017-07-24T10:29:19.867Z,3768
2017-07-24T10:30:19.580Z,4008
2017-07-24T10:31:19.917Z,3792
2017-07-24T10:32:19.335Z,3412
2017-07-24T10:33:19.923Z,3192
2017-07-24T10:34:20.009Z,3076
2017-07-24T10:35:20.042Z,3056
2017-07-24T10:36:19.441Z,3040
2017-07-24T10:37:20.087Z,3080
2017-07-24T10:38:20.059Z,3284
2017-07-24T10:39:19.839Z,3776
2017-07-24T10:40:20.180Z,4560
2017-07-24T10:41:20.216Z,5380
2017-07-24T10:42:19.922Z,6348
2017-07-24T10:43:20.208Z,7092
2017-07-24T10:44:19.994Z,6456
2017-07-24T10:45:20.005Z,5944
2017-07-24T10:46:20.386Z,4596
2017-07-24T10:47:19.762Z,4172
2017-07-24T10:48:20.671Z,2364
2017-07-24T10:49:20.440Z,1940
2017-07-24T10:50:20.157Z,2636
2017-07-24T10:51:20.189Z,4676
2017-07-24T10:52:20.211Z,6432
2017-07-24T10:53:20.497Z,6700
2017-07-24T10:54:20.578Z,6916
2017-07-24T10:55:20.302Z,6332
2017-07-24T10:56:20.325Z,4584
2017-07-24T10:57:20.359Z,4892
2017-07-24T10:58:20.956Z,4380
2017-07-24T10:59:20.721Z,3536
2017-07-24T11:00:20.757Z,2376
2017-07-24T11:01:20.475Z,2140
2017-07-24T11:02:20.191Z,2340
2017-07-24T11:03:20.779Z,2332
2017-07-24T11:04:20.570Z,2500
2017-07-24T11:05:20.585Z,2368
2017-07-24T11:06:20.930Z,2032
2017-07-24T11:07:20.646Z,1920
2017-07-24T11:08:20.933Z,1940
2017-07-24T11:09:21.015Z,1980
2017-07-24T11:10:21.045Z,2156
2017-07-24T11:11:20.762Z,3080
2017-07-24T11:12:20.800Z,1900
2017-07-24T11:13:20.760Z,2224
2017-07-24T11:14:20.872Z,2368
2017-07-24T11:15:20.881Z,2380
2017-07-24T11:16:21.222Z,2804
2017-07-24T11:17:20.939Z,4276
2017-07-24T11:18:21.232Z,7292
2017-07-24T11:19:21.313Z,8300
2017-07-24T11:20:21.025Z,9448
2017-07-24T11:21:21.070Z,8432
2017-07-24T11:22:21.394Z,7728
2017-07-24T11:23:21.713Z,7024
2017-07-24T11:24:20.833Z,4912
2017-07-24T11:25:20.853Z,3832
2017-07-24T11:26:21.205Z,3180
2017-07-24T11:27:21.538Z,3040
2017-07-24T11:28:21.557Z,2592
2017-07-24T11:29:21.598Z,2368
2017-07-24T11:30:21.310Z,2244
2017-07-24T11:31:21.364Z,2144
2017-07-24T11:32:21.670Z,1684
2017-07-24T11:33:21.696Z,1308
2017-07-24T11:34:21.435Z,1192
2017-07-24T11:35:21.769Z,1120
2017-07-24T11:36:21.486Z,700
2017-07-24T11:37:21.195Z,476
2017-07-24T11:38:22.108Z,580
2017-07-24T11:39:21.266Z,792
2017-07-24T11:40:21.917Z,1084
2017-07-24T11:41:21.633Z,1252
2017-07-24T11:42:21.976Z,1148
2017-07-24T11:43:21.940Z,1208
2017-07-24T11:44:21.720Z,1540
2017-07-24T11:45:21.745Z,1724
2017-07-24T11:46:21.463Z,1864
2017-07-24T11:47:21.490Z,2580
2017-07-24T11:48:21.772Z,3104
2017-07-24T11:49:21.561Z,3580
2017-07-24T11:50:21.893Z,6256
2017-07-24T11:51:21.918Z,9044
2017-07-24T11:52:22.263Z,8224
2017-07-24T11:53:22.240Z,10580
2017-07-24T11:54:22.329Z,9760
2017-07-24T11:55:21.725Z,9352
2017-07-24T11:56:22.369Z,15524
2017-07-24T11:57:22.095Z,34496
2017-07-24T11:58:22.744Z,53504
2017-07-24T11:59:22.474Z,35680
2017-07-24T12:00:22.204Z,59712
2017-07-24T12:01:22.223Z,7556
2017-07-24T12:02:21.927Z,10152
2017-07-24T12:03:22.892Z,6532
2017-07-24T12:04:22.301Z,6080
2017-07-24T12:05:22.047Z,4584
2017-07-24T12:06:22.375Z,4304
2017-07-24T12:07:22.399Z,2372
2017-07-24T12:08:23.011Z,1384
2017-07-24T12:09:22.762Z,1076
2017-07-24T12:10:22.170Z,812
2017-07-24T12:11:22.830Z,740
2017-07-24T12:12:22.851Z,684
2017-07-24T12:13:22.879Z,792
2017-07-24T12:14:22.297Z,1232
2017-07-24T12:15:22.949Z,2092
2017-07-24T12:16:22.987Z,2528
2017-07-24T12:17:23.002Z,3272
2017-07-24T12:18:22.707Z,3136
2017-07-24T12:19:22.765Z,2868
2017-07-24T12:20:23.081Z,3376
2017-07-24T12:21:22.819Z,3000
2017-07-24T12:22:22.831Z,2476
2017-07-24T12:23:23.164Z,2024
2017-07-24T12:24:23.199Z,1684
2017-07-24T12:25:22.926Z,1484
2017-07-24T12:26:23.266Z,2400
2017-07-24T12:27:22.983Z,5052
2017-07-24T12:28:23.572Z,70080
2017-07-24T12:29:23.037Z,8452
2017-07-24T12:30:23.397Z,4476
2017-07-24T12:31:23.103Z,3740
2017-07-24T12:32:23.128Z,2380
2017-07-24T12:33:23.419Z,1040
2017-07-24T12:34:22.873Z,680
2017-07-24T12:35:23.218Z,656
2017-07-24T12:36:23.243Z,912
2017-07-24T12:37:23.276Z,1764
2017-07-24T12:38:23.871Z,4120
2017-07-24T12:39:23.649Z,23552
2017-07-24T12:40:23.365Z,9576
2017-07-24T12:41:23.704Z,10664
2017-07-24T12:42:23.117Z,10288
2017-07-24T12:43:23.704Z,9264
2017-07-24T12:44:23.177Z,24928
2017-07-24T12:45:23.825Z,10544
2017-07-24T12:46:22.914Z,20448
2017-07-24T12:47:23.580Z,79296
2017-07-24T12:48:24.219Z,81312
2017-07-24T12:49:23.328Z,70592
2017-07-24T12:50:23.353Z,6920
2017-07-24T12:51:23.700Z,2228
2017-07-24T12:52:23.100Z,1292
2017-07-24T12:53:24.074Z,912
2017-07-24T12:54:23.798Z,828
2017-07-24T12:55:23.813Z,1028
2017-07-24T12:56:23.853Z,864
2017-07-24T12:57:23.876Z,816
2017-07-24T12:58:24.217Z,788
2017-07-24T12:59:23.936Z,624
2017-07-24T13:00:23.962Z,584
2017-07-24T13:01:24.314Z,640
2017-07-24T13:02:24.036Z,592
2017-07-24T13:03:23.737Z,528
2017-07-24T13:04:24.081Z,512
2017-07-24T13:05:24.123Z,412
2017-07-24T13:06:24.147Z,384
2017-07-24T13:07:24.184Z,404
2017-07-24T13:08:23.893Z,548
2017-07-24T13:09:24.234Z,776
2017-07-24T13:10:23.958Z,972
2017-07-24T13:11:24.612Z,1088
2017-07-24T13:12:24.628Z,1132
2017-07-24T13:13:24.368Z,1176
2017-07-24T13:14:24.069Z,1244
2017-07-24T13:15:24.726Z,1360
2017-07-24T13:16:24.437Z,1360
2017-07-24T13:17:24.468Z,1256
2017-07-24T13:18:24.188Z,1048
2017-07-24T13:19:24.538Z,920
2017-07-24T13:20:24.562Z,772
2017-07-24T13:21:24.903Z,556
2017-07-24T13:22:24.615Z,528
2017-07-24T13:23:24.642Z,556
2017-07-24T13:24:24.370Z,724
2017-07-24T13:25:25.018Z,892
2017-07-24T13:26:25.194Z,968
2017-07-24T13:27:25.077Z,908
2017-07-24T13:28:24.802Z,872
2017-07-24T13:29:25.135Z,876
2017-07-24T13:30:25.174Z,892
2017-07-24T13:31:24.881Z,900
2017-07-24T13:32:24.898Z,900
2017-07-24T13:33:25.250Z,920
2017-07-24T13:34:24.660Z,936
2017-07-24T13:35:25.311Z,948
2017-07-24T13:36:24.715Z,980
2017-07-24T13:37:25.405Z,1008
2017-07-24T13:38:25.084Z,1056
2017-07-24T13:39:25.441Z,1172
2017-07-24T13:40:25.138Z,1316
2017-07-24T13:41:25.168Z,1492
2017-07-24T13:42:25.512Z,1816
2017-07-24T13:43:25.241Z,2420
2017-07-24T13:44:25.581Z,4188
2017-07-24T13:45:25.289Z,9476
2017-07-24T13:46:25.008Z,8464
2017-07-24T13:47:25.348Z,9416
2017-07-24T13:48:25.376Z,8192
2017-07-24T13:49:25.710Z,5340